createdAt,value
2022-09-10T00:00:45.680Z,72.38
2022-09-10T00:03:43.712Z,72.03
2022-09-10T00:06:34.429Z,72.05
2022-09-10T00:09:22.758Z,71.72
2022-09-10T00:12:12.654Z,69.25
2022-09-10T00:15:00.872Z,70.90
2022-09-10T00:17:55.008Z,69.60
2022-09-10T00:20:44.016Z,72.25
2022-09-10T00:23:32.304Z,70.97
2022-09-10T00:26:24.810Z,68.95
2022-09-10T00:29:18.521Z,72.60
2022-09-10T00:32:07.542Z,72.28
2022-09-10T00:34:56.130Z,70.40
2022-09-10T00:37:45.141Z,71.53
2022-09-10T00:40:41.128Z,70.43
2022-09-10T00:43:48.058Z,71.70
2022-09-10T00:46:42.825Z,70.20
2022-09-10T00:49:34.853Z,73.13
2022-09-10T00:52:23.582Z,72.00
2022-09-10T00:55:13.574Z,73.90
2022-09-10T00:58:11.454Z,72.20
2022-09-10T01:01:02.528Z,74.55
2022-09-10T01:03:54.137Z,71.95
2022-09-10T01:06:46.352Z,72.97
2022-09-10T01:09:34.850Z,72.35
2022-09-10T01:12:47.243Z,72.85
2022-09-10T01:15:43.986Z,72.82
2022-09-10T01:18:45.102Z,71.78
2022-09-10T01:21:44.649Z,71.10
2022-09-10T01:24:55.745Z,71.97
2022-09-10T01:27:47.696Z,72.47
2022-09-10T01:30:42.613Z,70.55
2022-09-10T01:33:35.633Z,71.75
2022-09-10T01:36:29.984Z,69.75
2022-09-10T01:39:20.984Z,73.05
2022-09-10T01:42:10.441Z,71.25
2022-09-10T01:45:01.221Z,73.60
2022-09-10T01:48:19.207Z,74.30
2022-09-10T01:51:15.185Z,73.75
2022-09-10T01:54:24.897Z,75.18
2022-09-10T01:57:27.941Z,75.43
2022-09-10T02:00:22.797Z,76.10
2022-09-10T02:03:19.837Z,74.93
2022-09-10T02:06:14.312Z,76.18
2022-09-10T02:09:04.564Z,75.10
2022-09-10T02:12:02.387Z,73.72
2022-09-10T02:15:12.816Z,79.25
2022-09-10T02:18:19.671Z,79.50
2022-09-10T02:21:11.606Z,80.13
2022-09-10T02:24:06.074Z,78.30
2022-09-10T02:26:54.824Z,80.57
2022-09-10T02:29:46.491Z,80.03
2022-09-10T02:32:34.955Z,80.72
2022-09-10T02:35:33.954Z,81.75
2022-09-10T02:38:22.861Z,79.90
2022-09-10T02:41:11.306Z,81.07
2022-09-10T02:43:59.531Z,81.65
2022-09-10T02:46:47.862Z,79.88
2022-09-10T02:49:36.264Z,80.85
2022-09-10T02:52:25.984Z,79.88
2022-09-10T02:55:15.653Z,79.38
2022-09-10T02:58:04.449Z,80.60
2022-09-10T03:00:53.507Z,78.65
2022-09-10T03:03:51.370Z,80.10
2022-09-10T03:06:40.989Z,81.60
2022-09-10T03:09:36.924Z,81.10
2022-09-10T03:12:26.742Z,82.00
2022-09-10T03:15:22.958Z,81.40
2022-09-10T03:18:11.540Z,81.80
2022-09-10T03:21:10.894Z,80.25
2022-09-10T03:23:59.119Z,80.88
2022-09-10T03:26:52.247Z,80.63
2022-09-10T03:29:42.230Z,82.00
2022-09-10T03:32:37.356Z,81.80
2022-09-10T03:35:27.588Z,83.35
2022-09-10T03:38:15.890Z,81.65
2022-09-10T03:41:04.903Z,81.90
2022-09-10T03:44:00.876Z,82.75
2022-09-10T03:46:51.200Z,82.50
2022-09-10T03:49:40.677Z,82.22
2022-09-10T03:52:30.153Z,81.03
2022-09-10T03:55:19.055Z,83.22
2022-09-10T03:58:07.709Z,82.53
2022-09-10T04:01:03.610Z,86.32
2022-09-10T04:03:56.597Z,85.30
2022-09-10T04:06:46.869Z,82.13
2022-09-10T04:09:45.481Z,84.97
2022-09-10T04:12:33.840Z,84.35
2022-09-10T04:15:31.122Z,83.13
2022-09-10T04:18:20.899Z,80.85
2022-09-10T04:21:09.283Z,76.70
2022-09-10T04:24:05.516Z,79.13
2022-09-10T04:26:53.781Z,79.10
2022-09-10T04:29:49.953Z,79.70
2022-09-10T04:32:39.538Z,79.63
2022-09-10T04:35:35.467Z,83.20
2022-09-10T04:38:27.021Z,81.28
2022-09-10T04:41:21.545Z,79.97
2022-09-10T04:44:10.084Z,79.63
2022-09-10T04:47:04.703Z,77.60
2022-09-10T04:49:54.868Z,79.75
2022-09-10T04:52:44.843Z,79.85
2022-09-10T04:55:33.548Z,80.60
2022-09-10T04:58:22.432Z,79.82
2022-09-10T05:01:11.870Z,80.50
2022-09-10T05:04:00.582Z,81.75
2022-09-10T05:06:50.338Z,87.22
2022-09-10T05:09:40.155Z,85.47
2022-09-10T05:12:38.538Z,83.50
2022-09-10T05:15:26.870Z,83.68
2022-09-10T05:18:24.219Z,82.88
2022-09-10T05:21:12.578Z,84.15
2022-09-10T05:24:12.422Z,83.75
2022-09-10T05:27:02.261Z,82.60
2022-09-10T05:29:59.375Z,83.85
2022-09-10T05:32:47.815Z,83.78
2022-09-10T05:35:47.815Z,83.70
2022-09-10T05:38:39.844Z,82.03
2022-09-10T05:41:29.239Z,84.82
2022-09-10T05:44:25.797Z,82.13
2022-09-10T05:47:14.118Z,82.82
2022-09-10T05:50:08.883Z,82.43
2022-09-10T05:53:00.899Z,81.22
2022-09-10T05:55:50.988Z,81.20
2022-09-10T05:58:39.967Z,80.72
2022-09-10T06:01:32.136Z,79.57
2022-09-10T06:04:22.044Z,81.78
2022-09-10T06:07:10.842Z,82.80
2022-09-10T06:10:00.297Z,81.13
2022-09-10T06:12:58.593Z,80.85
2022-09-10T06:15:56.169Z,82.03
2022-09-10T06:18:46.444Z,80.47
2022-09-10T06:21:37.724Z,81.18
2022-09-10T06:24:26.057Z,81.07
2022-09-10T06:27:17.424Z,80.15
2022-09-10T06:30:12.519Z,78.97
2022-09-10T06:33:04.202Z,78.47
2022-09-10T06:36:01.458Z,77.30
2022-09-10T06:38:50.216Z,78.15
2022-09-10T06:41:38.698Z,77.05
2022-09-10T06:44:31.847Z,75.80
2022-09-10T06:50:51.608Z,73.78
2022-09-10T06:53:42.788Z,76.50
2022-09-10T06:56:33.808Z,74.10
2022-09-10T06:59:24.369Z,73.82
2022-09-10T07:02:12.942Z,72.43
2022-09-10T07:05:01.909Z,78.70
2022-09-10T07:07:51.519Z,68.78
2022-09-10T07:10:42.060Z,64.93
2022-09-10T07:13:30.882Z,66.65
2022-09-10T07:16:30.286Z,64.80
2022-09-10T07:19:18.963Z,60.95
2022-09-10T07:22:08.918Z,59.78
2022-09-10T07:25:07.239Z,56.60
2022-09-10T07:28:15.476Z,58.17
2022-09-10T07:31:15.970Z,58.35
2022-09-10T07:34:06.386Z,59.47
2022-09-10T07:37:01.980Z,56.70
2022-09-10T07:39:51.124Z,59.08
2022-09-10T07:42:45.771Z,51.95
2022-09-10T07:45:35.456Z,49.42
2022-09-10T07:48:27.288Z,49.92
2022-09-10T07:51:18.332Z,49.80
2022-09-10T07:54:07.909Z,49.55
2022-09-10T07:57:00.184Z,49.80
2022-09-10T07:59:49.245Z,51.17
2022-09-10T08:02:42.889Z,53.70
2022-09-10T08:05:34.196Z,52.95
2022-09-10T08:08:34.124Z,51.95
2022-09-10T08:11:23.203Z,51.70
2022-09-10T08:14:14.477Z,52.63
2022-09-10T08:17:06.023Z,51.05
2022-09-10T08:20:01.405Z,49.78
2022-09-10T08:22:50.198Z,48.20
2022-09-10T08:25:38.675Z,49.15
2022-09-10T08:28:29.759Z,48.08
2022-09-10T08:31:18.282Z,48.80
2022-09-10T08:34:14.278Z,45.65
2022-09-10T08:37:08.024Z,45.15
2022-09-10T08:39:58.319Z,43.47
2022-09-10T08:42:51.363Z,40.47
2022-09-10T08:45:43.571Z,40.58
2022-09-10T08:48:35.859Z,41.30
2022-09-10T08:51:30.334Z,42.28
2022-09-10T08:54:25.443Z,44.00
2022-09-10T08:57:24.673Z,45.78
2022-09-10T09:00:16.565Z,47.50
2022-09-10T09:03:13.939Z,45.90
2022-09-10T09:06:06.345Z,47.75
2022-09-10T09:09:03.060Z,47.95
2022-09-10T09:12:07.365Z,49.00
2022-09-10T09:15:09.344Z,47.60
2022-09-10T09:18:14.678Z,45.70
2022-09-10T09:21:09.753Z,42.70
2022-09-10T09:24:14.261Z,39.90
2022-09-10T09:27:16.896Z,40.08
2022-09-10T09:30:09.165Z,39.67
2022-09-10T09:33:17.543Z,36.60
2022-09-10T09:36:08.699Z,34.28
2022-09-10T09:38:57.498Z,33.65
2022-09-10T09:41:56.253Z,35.50
2022-09-10T09:44:56.857Z,37.28
2022-09-10T09:47:46.983Z,36.83
2022-09-10T09:50:39.359Z,36.08
2022-09-10T09:53:31.081Z,38.45
2022-09-10T09:56:25.029Z,39.22
2022-09-10T09:59:26.885Z,38.97
2022-09-10T10:02:19.636Z,42.25
2022-09-10T10:05:24.770Z,44.15
2022-09-10T10:08:31.167Z,44.35
2022-09-10T10:11:22.436Z,43.63
2022-09-10T10:14:41.744Z,38.25
2022-09-10T10:17:35.927Z,36.75
2022-09-10T10:20:37.175Z,34.85
2022-09-10T10:23:33.845Z,33.75
2022-09-10T10:26:33.761Z,31.02
2022-09-10T10:29:22.458Z,26.02
2022-09-10T10:32:19.847Z,23.85
2022-09-10T10:35:32.199Z,20.73
2022-09-10T10:38:35.365Z,17.10
2022-09-10T10:42:04.514Z,14.65
2022-09-10T10:45:31.231Z,13.90
2022-09-10T10:48:30.366Z,13.95
2022-09-10T10:51:32.033Z,14.50
2022-09-10T10:54:37.625Z,15.43
2022-09-10T10:57:34.648Z,14.85
2022-09-10T11:00:22.969Z,14.68
2022-09-10T11:03:16.117Z,13.95
2022-09-10T11:06:09.418Z,12.80
2022-09-10T11:09:04.235Z,11.70
2022-09-10T11:11:57.482Z,10.30
2022-09-10T11:14:51.354Z,10.10
2022-09-10T11:17:43.720Z,10.90
2022-09-10T11:20:38.070Z,11.40
2022-09-10T11:23:33.027Z,10.57
2022-09-10T11:26:27.694Z,10.15
2022-09-10T11:29:35.338Z,9.15
2022-09-10T11:32:30.336Z,7.70
2022-09-10T11:35:23.960Z,6.68
2022-09-10T11:38:20.730Z,5.97
2022-09-10T11:41:17.234Z,6.40
2022-09-10T11:44:19.207Z,6.63
2022-09-10T11:47:15.512Z,7.53
2022-09-10T11:50:11.088Z,7.63
2022-09-10T11:53:00.319Z,7.40
2022-09-10T11:56:21.470Z,7.15
2022-09-10T11:59:31.475Z,6.53
2022-09-10T12:02:58.609Z,6.95
2022-09-10T12:05:56.609Z,7.07
2022-09-10T12:09:01.153Z,7.50
2022-09-10T12:12:01.101Z,7.57
2022-09-10T12:14:51.084Z,7.78
2022-09-10T12:17:44.551Z,7.50
2022-09-10T12:20:36.894Z,6.60
2022-09-10T12:23:28.801Z,7.15
2022-09-10T12:26:20.675Z,7.47
2022-09-10T12:29:27.844Z,6.88
2022-09-10T12:32:32.409Z,6.80
2022-09-10T12:35:44.755Z,7.25
2022-09-10T12:38:51.209Z,6.22
2022-09-10T12:42:00.039Z,5.38
2022-09-10T12:44:48.737Z,5.85
2022-09-10T12:47:46.854Z,4.75
2022-09-10T12:50:46.229Z,3.67
2022-09-10T12:53:52.047Z,3.67
2022-09-10T12:56:50.917Z,2.80
2022-09-10T13:00:03.013Z,3.10
2022-09-10T13:02:58.398Z,3.00
2022-09-10T13:05:51.980Z,3.70
2022-09-10T13:08:43.717Z,3.10
2022-09-10T13:11:36.968Z,3.92
2022-09-10T13:14:30.583Z,4.18
2022-09-10T13:17:38.259Z,4.03
2022-09-10T13:20:34.693Z,4.63
2022-09-10T13:23:25.094Z,4.68
2022-09-10T13:26:52.361Z,5.28
2022-09-10T13:29:44.663Z,6.18
2022-09-10T13:32:42.759Z,6.70
2022-09-10T13:36:06.335Z,8.60
2022-09-10T13:39:25.179Z,10.30
2022-09-10T13:42:47.357Z,8.90
2022-09-10T13:45:39.725Z,6.50
2022-09-10T13:48:31.032Z,5.85
2022-09-10T13:51:36.777Z,6.63
2022-09-10T13:54:34.511Z,7.40
2022-09-10T13:57:27.662Z,7.20
2022-09-10T14:00:23.785Z,7.13
2022-09-10T14:03:17.472Z,7.03
2022-09-10T14:06:09.077Z,6.57
2022-09-10T14:09:03.873Z,6.63
2022-09-10T14:11:52.406Z,7.03
2022-09-10T14:14:54.708Z,9.00
2022-09-10T14:17:51.021Z,8.77
2022-09-10T14:20:42.772Z,7.93
2022-09-10T14:23:31.498Z,5.15
2022-09-10T14:26:33.884Z,4.07
2022-09-10T14:29:25.661Z,11.23
2022-09-10T14:32:28.672Z,3.70
2022-09-10T14:35:36.327Z,2.97
2022-09-10T14:38:26.925Z,2.90
2022-09-10T14:41:20.491Z,2.83
2022-09-10T14:44:29.806Z,2.78
2022-09-10T14:47:29.974Z,3.10
2022-09-10T14:50:31.892Z,3.40
2022-09-10T14:53:20.302Z,2.95
2022-09-10T14:56:19.652Z,3.50
2022-09-10T14:59:15.702Z,3.55
2022-09-10T15:02:15.839Z,3.20
2022-09-10T15:05:04.183Z,3.38
2022-09-10T15:08:01.638Z,3.15
2022-09-10T15:10:50.833Z,3.90
2022-09-10T15:13:49.321Z,3.30
2022-09-10T15:16:37.642Z,4.00
2022-09-10T15:19:28.036Z,4.10
2022-09-10T15:22:24.820Z,3.35
2022-09-10T15:25:29.402Z,4.30
2022-09-10T15:28:17.764Z,3.90
2022-09-10T15:31:06.752Z,4.80
2022-09-10T15:34:01.104Z,5.05
2022-09-10T15:36:51.261Z,5.70
2022-09-10T15:39:39.595Z,6.18
2022-09-10T15:42:27.976Z,6.78
2022-09-10T15:45:16.283Z,7.50
2022-09-10T15:48:05.045Z,7.18
2022-09-10T15:50:53.446Z,7.45
2022-09-10T15:53:44.238Z,9.02
2022-09-10T15:56:32.721Z,8.15
2022-09-10T15:59:22.301Z,8.30
2022-09-10T16:02:13.308Z,8.18
2022-09-10T16:05:02.248Z,8.45
2022-09-10T16:07:50.625Z,8.88
2022-09-10T16:10:41.606Z,8.90
2022-09-10T16:13:29.958Z,8.75
2022-09-10T16:16:20.422Z,8.77
2022-09-10T16:19:09.914Z,8.07
2022-09-10T16:21:58.237Z,8.55
2022-09-10T16:24:46.572Z,8.07
2022-09-10T16:27:37.933Z,8.55
2022-09-10T16:30:29.468Z,8.25
2022-09-10T16:33:17.757Z,11.70
2022-09-10T16:36:06.731Z,9.75
2022-09-10T16:38:57.100Z,9.45
2022-09-10T16:41:46.710Z,10.07
2022-09-10T16:44:36.594Z,11.23
2022-09-10T16:47:25.624Z,12.00
2022-09-10T16:50:14.442Z,12.90
2022-09-10T16:53:02.757Z,12.20
2022-09-10T16:55:51.504Z,12.32
2022-09-10T16:58:40.076Z,12.80
2022-09-10T17:01:31.230Z,12.50
2022-09-10T17:04:24.880Z,13.52
2022-09-10T17:07:14.653Z,12.43
2022-09-10T17:10:03.028Z,14.65
2022-09-10T17:12:57.855Z,16.10
2022-09-10T17:15:46.513Z,15.07
2022-09-10T17:22:06.301Z,17.67
2022-09-10T17:24:54.662Z,17.48
2022-09-10T17:27:43.041Z,20.67
2022-09-10T17:30:31.866Z,20.65
2022-09-10T17:33:21.941Z,21.60
2022-09-10T17:36:12.700Z,23.65
2022-09-10T17:39:02.527Z,23.33
2022-09-10T17:41:55.285Z,25.02
2022-09-10T17:44:44.413Z,25.33
2022-09-10T17:47:33.211Z,14.15
2022-09-10T17:50:21.579Z,14.23
2022-09-10T17:53:09.875Z,13.60
2022-09-10T17:56:05.233Z,13.52
2022-09-10T17:58:57.251Z,14.43
2022-09-10T18:01:45.677Z,15.68
2022-09-10T18:04:34.241Z,17.27
2022-09-10T18:07:22.706Z,19.17
2022-09-10T18:10:11.949Z,21.47
2022-09-10T18:13:02.242Z,23.00
2022-09-10T18:15:50.640Z,24.57
2022-09-10T18:18:39.914Z,25.93
2022-09-10T18:21:31.223Z,26.23
2022-09-10T18:24:22.621Z,27.37
2022-09-10T18:27:11.014Z,30.03
2022-09-10T18:30:01.408Z,31.93
2022-09-10T18:32:52.122Z,33.30
2022-09-10T18:35:40.692Z,35.57
2022-09-10T18:38:29.623Z,36.80
2022-09-10T18:41:23.279Z,38.50
2022-09-10T18:44:16.254Z,38.87
2022-09-10T18:47:17.665Z,40.70
2022-09-10T18:50:12.559Z,41.43
2022-09-10T18:53:01.398Z,41.80
2022-09-10T18:55:49.977Z,42.60
2022-09-10T18:58:38.939Z,43.47
2022-09-10T19:01:31.125Z,43.87
2022-09-10T19:04:23.813Z,43.83
2022-09-10T19:07:12.445Z,46.40
2022-09-10T19:10:04.159Z,46.27
2022-09-10T19:12:52.749Z,47.50
2022-09-10T19:15:41.303Z,47.87
2022-09-10T19:18:30.672Z,49.03
2022-09-10T19:21:21.267Z,49.83
2022-09-10T19:24:10.019Z,49.57
2022-09-10T19:26:58.819Z,50.60
2022-09-10T19:29:49.864Z,50.23
2022-09-10T19:32:38.516Z,50.43
2022-09-10T19:35:27.197Z,51.27
2022-09-10T19:38:36.608Z,49.97
2022-09-10T19:41:25.632Z,50.67
2022-09-10T19:44:16.008Z,49.47
2022-09-10T19:47:04.488Z,49.97
2022-09-10T19:49:53.100Z,50.10
2022-09-10T19:52:41.915Z,50.53
2022-09-10T19:55:31.663Z,50.93
2022-09-10T19:58:21.289Z,51.77
2022-09-10T20:01:17.257Z,52.43
2022-09-10T20:04:08.995Z,52.77
2022-09-10T20:06:58.697Z,52.80
2022-09-10T20:09:47.382Z,52.87
2022-09-10T20:12:37.232Z,53.27
2022-09-10T20:15:25.557Z,53.67
2022-09-10T20:18:13.904Z,54.23
2022-09-10T20:21:12.196Z,55.83
2022-09-10T20:24:00.548Z,56.20
2022-09-10T20:26:49.135Z,55.47
2022-09-10T20:29:38.891Z,55.50
2022-09-10T20:32:27.235Z,56.07
2022-09-10T20:35:15.834Z,56.20
2022-09-10T20:38:04.158Z,56.33
2022-09-10T20:40:52.844Z,55.00
2022-09-10T20:43:41.346Z,54.97
2022-09-10T20:46:32.255Z,54.87
2022-09-10T20:49:21.486Z,55.20
2022-09-10T20:52:09.847Z,54.50
2022-09-10T20:54:58.495Z,54.60
2022-09-10T20:57:47.109Z,53.77
2022-09-10T21:00:35.936Z,53.60
2022-09-10T21:03:26.150Z,53.13
2022-09-10T21:06:16.458Z,53.43
2022-09-10T21:09:05.380Z,52.10
2022-09-10T21:11:54.112Z,52.13
2022-09-10T21:14:42.549Z,51.80
2022-09-10T21:17:31.104Z,51.13
2022-09-10T21:20:22.143Z,50.03
2022-09-10T21:23:10.714Z,50.67
2022-09-10T21:25:59.406Z,51.10
2022-09-10T21:28:48.604Z,52.57
2022-09-10T21:31:37.058Z,53.40
2022-09-10T21:34:25.521Z,53.50
2022-09-10T21:37:15.303Z,54.80
2022-09-10T21:40:05.028Z,54.80
2022-09-10T21:42:53.388Z,55.70
2022-09-10T21:45:41.913Z,54.97
2022-09-10T21:48:31.254Z,56.53
2022-09-10T21:51:21.645Z,56.03
2022-09-10T21:54:15.174Z,58.50
2022-09-10T21:57:04.253Z,58.03
2022-09-10T21:59:53.405Z,58.33
2022-09-10T22:02:42.261Z,57.57
2022-09-10T22:05:30.637Z,58.37
2022-09-10T22:08:19.401Z,58.63
2022-09-10T22:11:14.327Z,58.40
2022-09-10T22:14:05.420Z,59.10
2022-09-10T22:16:54.277Z,59.93
2022-09-10T22:19:44.167Z,59.73
2022-09-10T22:22:32.551Z,60.57
2022-09-10T22:25:20.962Z,59.53
2022-09-10T22:28:11.020Z,59.50
2022-09-10T22:30:59.386Z,59.90
2022-09-10T22:33:54.304Z,59.27
2022-09-10T22:36:44.787Z,60.47
2022-09-10T22:39:36.901Z,60.63
2022-09-10T22:42:26.353Z,61.23
2022-09-10T22:45:17.485Z,61.17
2022-09-10T22:48:06.077Z,62.03
2022-09-10T22:50:54.589Z,61.57
2022-09-10T22:53:44.497Z,61.37
2022-09-10T22:56:33.231Z,62.23
2022-09-10T22:59:21.553Z,60.80
2022-09-10T23:02:11.527Z,60.37
2022-09-10T23:05:00.108Z,59.77
2022-09-10T23:07:50.489Z,59.40
2022-09-10T23:10:38.935Z,57.80
2022-09-10T23:13:27.607Z,58.53
2022-09-10T23:16:17.849Z,57.80
2022-09-10T23:19:10.752Z,58.07
2022-09-10T23:21:59.190Z,58.70
2022-09-10T23:24:47.744Z,59.30
2022-09-10T23:27:36.197Z,59.10
2022-09-10T23:30:24.556Z,59.40
2022-09-10T23:33:13.423Z,60.13
2022-09-10T23:36:04.418Z,60.03
2022-09-10T23:38:53.018Z,60.97
2022-09-10T23:41:41.797Z,61.37
2022-09-10T23:44:30.336Z,60.40
2022-09-10T23:47:18.764Z,61.17
2022-09-10T23:50:08.054Z,62.13
2022-09-10T23:52:58.007Z,61.87
2022-09-10T23:55:47.072Z,61.37
2022-09-10T23:58:35.588Z,62.47
